sensor_id;sensor_type;location;lat;lon;timestamp;temperature;humidity
9915;DHT22;4996;48.746;9.174;2022-12-07T00:01:29;5.20;99.90
9915;DHT22;4996;48.746;9.174;2022-12-07T00:03:59;5.20;99.90
9915;DHT22;4996;48.746;9.174;2022-12-07T00:06:32;5.30;99.90
9915;DHT22;4996;48.746;9.174;2022-12-07T00:08:58;5.30;99.90
9915;DHT22;4996;48.746;9.174;2022-12-07T00:11:24;5.20;99.90
9915;DHT22;4996;48.746;9.174;2022-12-07T00:13:54;5.20;99.90
9915;DHT22;4996;48.746;9.174;2022-12-07T00:16:22;5.20;99.90
9915;DHT22;4996;48.746;9.174;2022-12-07T00:18:47;5.20;99.90
9915;DHT22;4996;48.746;9.174;2022-12-07T00:21:22;5.20;99.90
9915;DHT22;4996;48.746;9.174;2022-12-07T00:23:49;5.30;99.90
9915;DHT22;4996;48.746;9.174;2022-12-07T00:26:26;5.30;99.90
9915;DHT22;4996;48.746;9.174;2022-12-07T00:28:57;5.30;99.90
9915;DHT22;4996;48.746;9.174;2022-12-07T00:31:26;5.20;99.90
9915;DHT22;4996;48.746;9.174;2022-12-07T00:33:52;5.20;99.90
9915;DHT22;4996;48.746;9.174;2022-12-07T00:36:20;5.10;99.90
9915;DHT22;4996;48.746;9.174;2022-12-07T00:38:46;5.10;99.90
9915;DHT22;4996;48.746;9.174;2022-12-07T00:41:13;5.10;99.90
9915;DHT22;4996;48.746;9.174;2022-12-07T00:43:40;5.00;99.90
9915;DHT22;4996;48.746;9.174;2022-12-07T00:46:06;5.10;99.90
9915;DHT22;4996;48.746;9.174;2022-12-07T00:48:32;5.10;99.90
9915;DHT22;4996;48.746;9.174;2022-12-07T00:50:57;5.10;99.90
9915;DHT22;4996;48.746;9.174;2022-12-07T00:53:23;5.00;99.90
9915;DHT22;4996;48.746;9.174;2022-12-07T00:55:49;5.10;99.90
9915;DHT22;4996;48.746;9.174;2022-12-07T00:58:14;5.10;99.90
9915;DHT22;4996;48.746;9.174;2022-12-07T01:00:42;5.10;99.90
9915;DHT22;4996;48.746;9.174;2022-12-07T01:03:10;5.20;99.90
9915;DHT22;4996;48.746;9.174;2022-12-07T01:05:36;5.10;99.90
9915;DHT22;4996;48.746;9.174;2022-12-07T01:08:02;5.20;99.90
9915;DHT22;4996;48.746;9.174;2022-12-07T01:10:27;5.20;99.90
9915;DHT22;4996;48.746;9.174;2022-12-07T01:12:53;5.30;99.90
9915;DHT22;4996;48.746;9.174;2022-12-07T01:15:19;5.30;99.90
9915;DHT22;4996;48.746;9.174;2022-12-07T01:17:44;5.30;99.90
9915;DHT22;4996;48.746;9.174;2022-12-07T01:20:11;5.20;99.90
9915;DHT22;4996;48.746;9.174;2022-12-07T01:22:40;5.20;99.90
9915;DHT22;4996;48.746;9.174;2022-12-07T01:25:07;5.20;99.90
9915;DHT22;4996;48.746;9.174;2022-12-07T01:27:34;5.10;99.90
9915;DHT22;4996;48.746;9.174;2022-12-07T01:30:00;5.10;99.90
9915;DHT22;4996;48.746;9.174;2022-12-07T01:32:25;5.10;99.90
9915;DHT22;4996;48.746;9.174;2022-12-07T01:34:51;4.90;99.90
9915;DHT22;4996;48.746;9.174;2022-12-07T01:37:17;4.80;99.90
9915;DHT22;4996;48.746;9.174;2022-12-07T01:39:42;4.90;99.90
9915;DHT22;4996;48.746;9.174;2022-12-07T01:42:11;5.00;99.90
9915;DHT22;4996;48.746;9.174;2022-12-07T01:47:42;5.10;99.90
9915;DHT22;4996;48.746;9.174;2022-12-07T01:50:09;5.10;99.90
9915;DHT22;4996;48.746;9.174;2022-12-07T01:52:35;5.00;99.90
9915;DHT22;4996;48.746;9.174;2022-12-07T01:55:08;5.10;99.90
9915;DHT22;4996;48.746;9.174;2022-12-07T01:57:39;5.10;99.90
9915;DHT22;4996;48.746;9.174;2022-12-07T02:00:06;5.10;99.90
9915;DHT22;4996;48.746;9.174;2022-12-07T02:02:38;5.10;99.90
9915;DHT22;4996;48.746;9.174;2022-12-07T02:05:06;5.10;99.90
9915;DHT22;4996;48.746;9.174;2022-12-07T02:07:34;5.10;99.90
9915;DHT22;4996;48.746;9.174;2022-12-07T02:10:24;5.10;99.90
9915;DHT22;4996;48.746;9.174;2022-12-07T02:13:06;5.10;99.90
9915;DHT22;4996;48.746;9.174;2022-12-07T02:19:12;5.00;99.90
9915;DHT22;4996;48.746;9.174;2022-12-07T02:24:44;5.10;99.90
9915;DHT22;4996;48.746;9.174;2022-12-07T02:30:20;5.20;99.90
9915;DHT22;4996;48.746;9.174;2022-12-07T02:32:45;5.10;99.90
9915;DHT22;4996;48.746;9.174;2022-12-07T02:35:24;5.10;99.90
9915;DHT22;4996;48.746;9.174;2022-12-07T02:45:52;5.20;99.90
9915;DHT22;4996;48.746;9.174;2022-12-07T02:48:19;5.10;99.90
9915;DHT22;4996;48.746;9.174;2022-12-07T02:50:49;5.10;99.90
9915;DHT22;4996;48.746;9.174;2022-12-07T02:53:35;5.00;99.90
9915;DHT22;4996;48.746;9.174;2022-12-07T02:58:56;5.20;99.90
9915;DHT22;4996;48.746;9.174;2022-12-07T03:07:39;5.00;99.90
9915;DHT22;4996;48.746;9.174;2022-12-07T03:10:17;5.20;99.90
9915;DHT22;4996;48.746;9.174;2022-12-07T03:12:57;5.10;99.90
9915;DHT22;4996;48.746;9.174;2022-12-07T03:18:16;5.30;99.90
9915;DHT22;4996;48.746;9.174;2022-12-07T03:20:44;5.20;99.90
9915;DHT22;4996;48.746;9.174;2022-12-07T03:23:12;5.20;99.90
9915;DHT22;4996;48.746;9.174;2022-12-07T03:25:43;5.20;99.90
9915;DHT22;4996;48.746;9.174;2022-12-07T03:28:12;5.20;99.90
9915;DHT22;4996;48.746;9.174;2022-12-07T03:31:01;5.20;99.90
9915;DHT22;4996;48.746;9.174;2022-12-07T03:33:33;5.20;99.90
9915;DHT22;4996;48.746;9.174;2022-12-07T03:36:14;5.30;99.90
9915;DHT22;4996;48.746;9.174;2022-12-07T03:38:52;5.30;99.90
9915;DHT22;4996;48.746;9.174;2022-12-07T03:41:23;5.30;99.90
9915;DHT22;4996;48.746;9.174;2022-12-07T03:43:49;5.30;99.90
9915;DHT22;4996;48.746;9.174;2022-12-07T03:46:39;5.30;99.90
9915;DHT22;4996;48.746;9.174;2022-12-07T03:49:24;5.30;99.90
9915;DHT22;4996;48.746;9.174;2022-12-07T03:52:04;5.30;99.90
9915;DHT22;4996;48.746;9.174;2022-12-07T03:54:41;5.30;99.90
9915;DHT22;4996;48.746;9.174;2022-12-07T03:57:09;5.30;99.90
9915;DHT22;4996;48.746;9.174;2022-12-07T03:59:37;5.30;99.90
9915;DHT22;4996;48.746;9.174;2022-12-07T04:02:05;5.30;99.90
9915;DHT22;4996;48.746;9.174;2022-12-07T04:04:32;5.10;99.90
9915;DHT22;4996;48.746;9.174;2022-12-07T04:06:58;5.10;99.90
9915;DHT22;4996;48.746;9.174;2022-12-07T04:09:24;5.10;99.90
9915;DHT22;4996;48.746;9.174;2022-12-07T04:11:49;5.00;99.90
9915;DHT22;4996;48.746;9.174;2022-12-07T04:14:15;4.90;99.90
9915;DHT22;4996;48.746;9.174;2022-12-07T04:16:50;4.90;99.90
9915;DHT22;4996;48.746;9.174;2022-12-07T04:19:18;4.80;99.90
9915;DHT22;4996;48.746;9.174;2022-12-07T04:21:44;4.80;99.90
9915;DHT22;4996;48.746;9.174;2022-12-07T04:24:11;4.70;99.90
9915;DHT22;4996;48.746;9.174;2022-12-07T04:26:37;4.70;99.90
9915;DHT22;4996;48.746;9.174;2022-12-07T04:29:03;4.60;99.90
9915;DHT22;4996;48.746;9.174;2022-12-07T04:31:28;4.50;99.90
9915;DHT22;4996;48.746;9.174;2022-12-07T04:33:54;4.60;99.90
9915;DHT22;4996;48.746;9.174;2022-12-07T04:36:20;4.70;99.90
9915;DHT22;4996;48.746;9.174;2022-12-07T04:38:46;4.60;99.90
9915;DHT22;4996;48.746;9.174;2022-12-07T04:41:12;4.50;99.90
9915;DHT22;4996;48.746;9.174;2022-12-07T04:43:37;4.50;99.90
9915;DHT22;4996;48.746;9.174;2022-12-07T04:46:03;4.40;99.90
9915;DHT22;4996;48.746;9.174;2022-12-07T04:48:29;4.50;99.90
9915;DHT22;4996;48.746;9.174;2022-12-07T04:53:24;4.70;99.90
9915;DHT22;4996;48.746;9.174;2022-12-07T04:55:50;4.60;99.90
9915;DHT22;4996;48.746;9.174;2022-12-07T04:58:15;4.70;99.90
9915;DHT22;4996;48.746;9.174;2022-12-07T05:00:41;4.70;99.90
9915;DHT22;4996;48.746;9.174;2022-12-07T05:03:06;4.70;99.90
9915;DHT22;4996;48.746;9.174;2022-12-07T05:05:32;4.80;99.90
9915;DHT22;4996;48.746;9.174;2022-12-07T05:07:58;4.70;99.90
9915;DHT22;4996;48.746;9.174;2022-12-07T05:10:23;4.80;99.90
9915;DHT22;4996;48.746;9.174;2022-12-07T05:12:49;4.80;99.90
9915;DHT22;4996;48.746;9.174;2022-12-07T05:15:15;4.90;99.90
9915;DHT22;4996;48.746;9.174;2022-12-07T05:17:41;4.90;99.90
9915;DHT22;4996;48.746;9.174;2022-12-07T05:20:07;4.90;99.90
9915;DHT22;4996;48.746;9.174;2022-12-07T05:22:33;4.90;99.90
9915;DHT22;4996;48.746;9.174;2022-12-07T05:24:58;4.90;99.90
9915;DHT22;4996;48.746;9.174;2022-12-07T05:27:24;5.00;99.90
9915;DHT22;4996;48.746;9.174;2022-12-07T05:29:51;5.00;99.90
9915;DHT22;4996;48.746;9.174;2022-12-07T05:32:17;5.00;99.90
9915;DHT22;4996;48.746;9.174;2022-12-07T05:34:42;5.00;99.90
9915;DHT22;4996;48.746;9.174;2022-12-07T05:37:08;5.00;99.90
9915;DHT22;4996;48.746;9.174;2022-12-07T05:39:33;5.00;99.90
9915;DHT22;4996;48.746;9.174;2022-12-07T05:41:59;5.00;99.90
9915;DHT22;4996;48.746;9.174;2022-12-07T05:44:41;4.90;99.90
9915;DHT22;4996;48.746;9.174;2022-12-07T05:47:08;4.80;99.90
9915;DHT22;4996;48.746;9.174;2022-12-07T05:49:33;4.70;99.90
9915;DHT22;4996;48.746;9.174;2022-12-07T05:51:59;4.60;99.90
9915;DHT22;4996;48.746;9.174;2022-12-07T05:54:25;4.40;99.90
9915;DHT22;4996;48.746;9.174;2022-12-07T05:56:50;4.40;99.90
9915;DHT22;4996;48.746;9.174;2022-12-07T05:59:16;4.30;99.90
9915;DHT22;4996;48.746;9.174;2022-12-07T06:04:17;4.20;99.90
9915;DHT22;4996;48.746;9.174;2022-12-07T06:06:42;4.20;99.90
9915;DHT22;4996;48.746;9.174;2022-12-07T06:09:08;4.10;99.90
9915;DHT22;4996;48.746;9.174;2022-12-07T06:11:33;4.20;99.90
9915;DHT22;4996;48.746;9.174;2022-12-07T06:14:18;4.20;99.90
9915;DHT22;4996;48.746;9.174;2022-12-07T06:16:43;4.20;99.90
9915;DHT22;4996;48.746;9.174;2022-12-07T06:19:09;4.20;99.90
9915;DHT22;4996;48.746;9.174;2022-12-07T06:21:34;4.30;99.90
9915;DHT22;4996;48.746;9.174;2022-12-07T06:24:00;4.40;99.90
9915;DHT22;4996;48.746;9.174;2022-12-07T06:26:26;4.40;99.90
9915;DHT22;4996;48.746;9.174;2022-12-07T06:28:51;4.40;99.90
9915;DHT22;4996;48.746;9.174;2022-12-07T06:31:17;4.50;99.90
9915;DHT22;4996;48.746;9.174;2022-12-07T06:33:42;4.40;99.90
9915;DHT22;4996;48.746;9.174;2022-12-07T06:36:09;4.50;99.90
9915;DHT22;4996;48.746;9.174;2022-12-07T06:38:35;4.50;99.90
9915;DHT22;4996;48.746;9.174;2022-12-07T06:41:00;4.60;99.90
9915;DHT22;4996;48.746;9.174;2022-12-07T06:43:26;4.60;99.90
9915;DHT22;4996;48.746;9.174;2022-12-07T06:45:52;4.60;99.90
9915;DHT22;4996;48.746;9.174;2022-12-07T06:48:18;4.70;99.90
9915;DHT22;4996;48.746;9.174;2022-12-07T06:50:47;4.70;99.90
9915;DHT22;4996;48.746;9.174;2022-12-07T06:53:13;4.70;99.90
9915;DHT22;4996;48.746;9.174;2022-12-07T06:55:39;4.70;99.90
9915;DHT22;4996;48.746;9.174;2022-12-07T06:58:04;4.60;99.90
9915;DHT22;4996;48.746;9.174;2022-12-07T07:00:30;4.60;99.90
9915;DHT22;4996;48.746;9.174;2022-12-07T07:02:56;4.70;99.90
9915;DHT22;4996;48.746;9.174;2022-12-07T07:05:21;4.70;99.90
9915;DHT22;4996;48.746;9.174;2022-12-07T07:07:50;4.70;99.90
9915;DHT22;4996;48.746;9.174;2022-12-07T07:10:16;4.60;99.90
9915;DHT22;4996;48.746;9.174;2022-12-07T07:12:42;4.70;99.90
9915;DHT22;4996;48.746;9.174;2022-12-07T07:15:07;4.70;99.90
9915;DHT22;4996;48.746;9.174;2022-12-07T07:17:33;4.70;99.90
9915;DHT22;4996;48.746;9.174;2022-12-07T07:19:59;4.70;99.90
9915;DHT22;4996;48.746;9.174;2022-12-07T07:22:24;4.70;99.90
9915;DHT22;4996;48.746;9.174;2022-12-07T07:24:50;4.80;99.90
9915;DHT22;4996;48.746;9.174;2022-12-07T07:27:15;4.80;99.90
9915;DHT22;4996;48.746;9.174;2022-12-07T07:29:41;4.90;99.90
9915;DHT22;4996;48.746;9.174;2022-12-07T07:32:06;4.80;99.90
9915;DHT22;4996;48.746;9.174;2022-12-07T07:34:33;4.80;99.90
9915;DHT22;4996;48.746;9.174;2022-12-07T07:36:58;4.80;99.90
9915;DHT22;4996;48.746;9.174;2022-12-07T07:39:24;4.90;99.90
9915;DHT22;4996;48.746;9.174;2022-12-07T07:41:49;4.80;99.90
9915;DHT22;4996;48.746;9.174;2022-12-07T07:44:15;4.70;99.90
9915;DHT22;4996;48.746;9.174;2022-12-07T07:46:40;4.80;99.90
9915;DHT22;4996;48.746;9.174;2022-12-07T07:49:06;4.80;99.90
9915;DHT22;4996;48.746;9.174;2022-12-07T07:51:31;4.80;99.90
9915;DHT22;4996;48.746;9.174;2022-12-07T07:53:57;4.70;99.90
9915;DHT22;4996;48.746;9.174;2022-12-07T07:56:22;4.70;99.90
9915;DHT22;4996;48.746;9.174;2022-12-07T07:58:52;4.80;99.90
9915;DHT22;4996;48.746;9.174;2022-12-07T08:01:17;4.80;99.90
9915;DHT22;4996;48.746;9.174;2022-12-07T08:03:45;4.80;99.90
9915;DHT22;4996;48.746;9.174;2022-12-07T08:06:11;4.80;99.90
9915;DHT22;4996;48.746;9.174;2022-12-07T08:08:36;4.80;99.90
9915;DHT22;4996;48.746;9.174;2022-12-07T08:11:05;4.60;99.90
9915;DHT22;4996;48.746;9.174;2022-12-07T08:13:31;4.70;99.90
9915;DHT22;4996;48.746;9.174;2022-12-07T08:15:56;4.70;99.90
9915;DHT22;4996;48.746;9.174;2022-12-07T08:18:22;4.80;99.90
9915;DHT22;4996;48.746;9.174;2022-12-07T08:20:47;4.80;99.90
9915;DHT22;4996;48.746;9.174;2022-12-07T08:23:13;4.70;99.90
9915;DHT22;4996;48.746;9.174;2022-12-07T08:25:39;4.80;99.90
9915;DHT22;4996;48.746;9.174;2022-12-07T08:28:04;4.80;99.90
9915;DHT22;4996;48.746;9.174;2022-12-07T08:30:31;4.90;99.90
9915;DHT22;4996;48.746;9.174;2022-12-07T08:32:57;4.90;99.90
9915;DHT22;4996;48.746;9.174;2022-12-07T08:35:23;4.90;99.90
9915;DHT22;4996;48.746;9.174;2022-12-07T08:37:48;5.00;99.90
9915;DHT22;4996;48.746;9.174;2022-12-07T08:40:14;5.00;99.90
9915;DHT22;4996;48.746;9.174;2022-12-07T08:42:43;5.10;99.90
9915;DHT22;4996;48.746;9.174;2022-12-07T08:45:12;5.10;99.90
9915;DHT22;4996;48.746;9.174;2022-12-07T08:47:42;5.20;99.90
9915;DHT22;4996;48.746;9.174;2022-12-07T08:50:10;5.20;99.90
9915;DHT22;4996;48.746;9.174;2022-12-07T08:52:37;5.30;99.90
9915;DHT22;4996;48.746;9.174;2022-12-07T08:55:03;5.20;99.90
9915;DHT22;4996;48.746;9.174;2022-12-07T08:57:30;5.30;99.90
9915;DHT22;4996;48.746;9.174;2022-12-07T08:59:57;5.40;99.90
9915;DHT22;4996;48.746;9.174;2022-12-07T09:02:23;5.50;99.90
9915;DHT22;4996;48.746;9.174;2022-12-07T09:04:49;5.60;99.90
9915;DHT22;4996;48.746;9.174;2022-12-07T09:07:14;5.60;99.90
9915;DHT22;4996;48.746;9.174;2022-12-07T09:09:40;5.70;99.90
9915;DHT22;4996;48.746;9.174;2022-12-07T09:12:06;5.70;99.90
9915;DHT22;4996;48.746;9.174;2022-12-07T09:14:31;5.60;99.90
9915;DHT22;4996;48.746;9.174;2022-12-07T09:17:08;5.50;99.90
9915;DHT22;4996;48.746;9.174;2022-12-07T09:19:35;5.40;99.90
9915;DHT22;4996;48.746;9.174;2022-12-07T09:22:01;5.70;99.90
9915;DHT22;4996;48.746;9.174;2022-12-07T09:24:26;5.50;99.90
9915;DHT22;4996;48.746;9.174;2022-12-07T09:26:52;5.70;99.90
9915;DHT22;4996;48.746;9.174;2022-12-07T09:29:17;5.70;99.90
9915;DHT22;4996;48.746;9.174;2022-12-07T09:31:43;5.70;99.90
9915;DHT22;4996;48.746;9.174;2022-12-07T09:34:08;5.70;99.90
9915;DHT22;4996;48.746;9.174;2022-12-07T09:36:34;5.80;99.90
9915;DHT22;4996;48.746;9.174;2022-12-07T09:39:00;5.80;99.90
9915;DHT22;4996;48.746;9.174;2022-12-07T09:41:27;5.90;99.90
9915;DHT22;4996;48.746;9.174;2022-12-07T09:44:02;6.00;99.90
9915;DHT22;4996;48.746;9.174;2022-12-07T09:46:33;5.80;99.90
9915;DHT22;4996;48.746;9.174;2022-12-07T09:49:00;6.00;99.90
9915;DHT22;4996;48.746;9.174;2022-12-07T09:51:25;6.10;99.90
9915;DHT22;4996;48.746;9.174;2022-12-07T09:53:53;6.10;99.90
9915;DHT22;4996;48.746;9.174;2022-12-07T09:56:19;6.00;99.90
9915;DHT22;4996;48.746;9.174;2022-12-07T09:58:46;5.80;99.90
9915;DHT22;4996;48.746;9.174;2022-12-07T10:01:16;6.00;99.90
9915;DHT22;4996;48.746;9.174;2022-12-07T10:03:49;6.00;99.90
9915;DHT22;4996;48.746;9.174;2022-12-07T10:06:15;6.00;99.90
9915;DHT22;4996;48.746;9.174;2022-12-07T10:08:40;5.90;99.90
9915;DHT22;4996;48.746;9.174;2022-12-07T10:11:09;6.00;99.90
9915;DHT22;4996;48.746;9.174;2022-12-07T10:13:39;6.10;99.90
9915;DHT22;4996;48.746;9.174;2022-12-07T10:16:07;6.30;99.90
9915;DHT22;4996;48.746;9.174;2022-12-07T10:18:47;6.20;99.90
9915;DHT22;4996;48.746;9.174;2022-12-07T10:23:41;6.40;99.90
9915;DHT22;4996;48.746;9.174;2022-12-07T10:26:27;6.50;99.90
9915;DHT22;4996;48.746;9.174;2022-12-07T10:28:54;6.40;99.90
9915;DHT22;4996;48.746;9.174;2022-12-07T10:31:22;6.70;99.90
9915;DHT22;4996;48.746;9.174;2022-12-07T10:33:56;6.40;99.90
9915;DHT22;4996;48.746;9.174;2022-12-07T10:39:00;6.60;99.90
9915;DHT22;4996;48.746;9.174;2022-12-07T10:41:26;6.60;99.90
9915;DHT22;4996;48.746;9.174;2022-12-07T10:43:54;6.60;99.90
9915;DHT22;4996;48.746;9.174;2022-12-07T10:52:08;6.80;99.90
9915;DHT22;4996;48.746;9.174;2022-12-07T10:54:48;6.70;99.90
9915;DHT22;4996;48.746;9.174;2022-12-07T10:59:57;6.40;99.90
9915;DHT22;4996;48.746;9.174;2022-12-07T11:02:50;6.30;99.90
9915;DHT22;4996;48.746;9.174;2022-12-07T11:06:09;6.50;99.90
9915;DHT22;4996;48.746;9.174;2022-12-07T11:11:14;6.50;99.90
9915;DHT22;4996;48.746;9.174;2022-12-07T11:16:55;6.70;99.90
9915;DHT22;4996;48.746;9.174;2022-12-07T11:22:32;6.80;99.90
9915;DHT22;4996;48.746;9.174;2022-12-07T11:28:02;6.80;99.90
9915;DHT22;4996;48.746;9.174;2022-12-07T11:30:38;6.80;99.90
9915;DHT22;4996;48.746;9.174;2022-12-07T11:33:22;6.80;99.90
9915;DHT22;4996;48.746;9.174;2022-12-07T11:38:26;6.80;99.90
9915;DHT22;4996;48.746;9.174;2022-12-07T11:41:00;6.90;99.90
9915;DHT22;4996;48.746;9.174;2022-12-07T11:46:20;7.00;99.90
9915;DHT22;4996;48.746;9.174;2022-12-07T11:48:56;7.00;99.90
9915;DHT22;4996;48.746;9.174;2022-12-07T11:51:23;7.00;99.90
9915;DHT22;4996;48.746;9.174;2022-12-07T11:54:18;6.90;99.90
9915;DHT22;4996;48.746;9.174;2022-12-07T11:56:46;6.90;99.90
9915;DHT22;4996;48.746;9.174;2022-12-07T11:59:17;6.80;99.90
9915;DHT22;4996;48.746;9.174;2022-12-07T12:01:55;6.80;99.90
9915;DHT22;4996;48.746;9.174;2022-12-07T12:04:39;6.90;99.90
9915;DHT22;4996;48.746;9.174;2022-12-07T12:07:15;6.90;99.90
9915;DHT22;4996;48.746;9.174;2022-12-07T12:09:53;6.90;99.90
9915;DHT22;4996;48.746;9.174;2022-12-07T12:20:30;6.90;99.90
9915;DHT22;4996;48.746;9.174;2022-12-07T12:23:05;6.80;99.90
9915;DHT22;4996;48.746;9.174;2022-12-07T12:25:47;6.90;99.90
9915;DHT22;4996;48.746;9.174;2022-12-07T12:28:40;6.90;99.90
9915;DHT22;4996;48.746;9.174;2022-12-07T12:33:46;6.70;99.90
9915;DHT22;4996;48.746;9.174;2022-12-07T12:47:03;6.60;99.90
9915;DHT22;4996;48.746;9.174;2022-12-07T12:49:35;6.50;99.90
9915;DHT22;4996;48.746;9.174;2022-12-07T12:52:46;6.30;99.90
9915;DHT22;4996;48.746;9.174;2022-12-07T12:55:15;6.10;99.90
9915;DHT22;4996;48.746;9.174;2022-12-07T12:57:45;6.10;99.90
9915;DHT22;4996;48.746;9.174;2022-12-07T13:00:22;6.00;99.90
9915;DHT22;4996;48.746;9.174;2022-12-07T13:02:55;6.10;99.90
9915;DHT22;4996;48.746;9.174;2022-12-07T13:05:24;6.10;99.90
9915;DHT22;4996;48.746;9.174;2022-12-07T13:08:17;6.20;99.90
9915;DHT22;4996;48.746;9.174;2022-12-07T13:10:48;6.00;99.90
9915;DHT22;4996;48.746;9.174;2022-12-07T13:15:44;6.20;99.90
9915;DHT22;4996;48.746;9.174;2022-12-07T13:20:59;6.30;99.90
9915;DHT22;4996;48.746;9.174;2022-12-07T13:23:26;6.30;99.90
9915;DHT22;4996;48.746;9.174;2022-12-07T13:26:19;6.30;99.90
9915;DHT22;4996;48.746;9.174;2022-12-07T13:29:11;6.40;99.90
9915;DHT22;4996;48.746;9.174;2022-12-07T13:31:43;6.50;99.90
9915;DHT22;4996;48.746;9.174;2022-12-07T13:36:54;6.50;99.90
9915;DHT22;4996;48.746;9.174;2022-12-07T13:39:23;6.50;99.90
9915;DHT22;4996;48.746;9.174;2022-12-07T13:41:54;6.50;99.90
9915;DHT22;4996;48.746;9.174;2022-12-07T13:44:21;6.50;99.90
9915;DHT22;4996;48.746;9.174;2022-12-07T13:49:28;6.30;99.90
9915;DHT22;4996;48.746;9.174;2022-12-07T13:51:56;6.30;99.90
9915;DHT22;4996;48.746;9.174;2022-12-07T13:54:32;6.40;99.90
9915;DHT22;4996;48.746;9.174;2022-12-07T13:56:58;6.50;99.90
9915;DHT22;4996;48.746;9.174;2022-12-07T13:59:25;6.40;99.90
9915;DHT22;4996;48.746;9.174;2022-12-07T14:01:52;6.50;99.90
9915;DHT22;4996;48.746;9.174;2022-12-07T14:06:59;6.40;99.90
9915;DHT22;4996;48.746;9.174;2022-12-07T14:09:27;6.40;99.90
9915;DHT22;4996;48.746;9.174;2022-12-07T14:11:55;6.40;99.90
9915;DHT22;4996;48.746;9.174;2022-12-07T14:14:25;6.30;99.90
9915;DHT22;4996;48.746;9.174;2022-12-07T14:16:59;6.30;99.90
9915;DHT22;4996;48.746;9.174;2022-12-07T14:19:42;6.40;99.90
9915;DHT22;4996;48.746;9.174;2022-12-07T14:22:24;6.70;99.90
9915;DHT22;4996;48.746;9.174;2022-12-07T14:24:50;6.70;99.90
9915;DHT22;4996;48.746;9.174;2022-12-07T14:27:22;6.70;99.90
9915;DHT22;4996;48.746;9.174;2022-12-07T14:29:48;6.70;99.90
9915;DHT22;4996;48.746;9.174;2022-12-07T14:32:23;6.80;99.90
9915;DHT22;4996;48.746;9.174;2022-12-07T14:35:02;6.80;99.90
9915;DHT22;4996;48.746;9.174;2022-12-07T14:37:30;6.60;99.90
9915;DHT22;4996;48.746;9.174;2022-12-07T14:39:56;6.40;99.90
9915;DHT22;4996;48.746;9.174;2022-12-07T14:42:24;6.40;99.90
9915;DHT22;4996;48.746;9.174;2022-12-07T14:44:52;6.40;99.90
9915;DHT22;4996;48.746;9.174;2022-12-07T14:47:17;6.40;99.90
9915;DHT22;4996;48.746;9.174;2022-12-07T14:49:43;6.40;99.90
9915;DHT22;4996;48.746;9.174;2022-12-07T14:52:19;6.30;99.90
9915;DHT22;4996;48.746;9.174;2022-12-07T14:54:46;6.30;99.90
9915;DHT22;4996;48.746;9.174;2022-12-07T14:57:11;6.30;99.90
9915;DHT22;4996;48.746;9.174;2022-12-07T14:59:37;6.30;99.90
9915;DHT22;4996;48.746;9.174;2022-12-07T15:02:03;6.30;99.90
9915;DHT22;4996;48.746;9.174;2022-12-07T15:04:29;6.30;99.90
9915;DHT22;4996;48.746;9.174;2022-12-07T15:06:58;6.10;99.90
9915;DHT22;4996;48.746;9.174;2022-12-07T15:09:24;6.10;99.90
9915;DHT22;4996;48.746;9.174;2022-12-07T15:11:50;6.10;99.90
9915;DHT22;4996;48.746;9.174;2022-12-07T15:14:15;6.20;99.90
9915;DHT22;4996;48.746;9.174;2022-12-07T15:16:42;6.10;99.90
9915;DHT22;4996;48.746;9.174;2022-12-07T15:19:22;6.10;99.90
9915;DHT22;4996;48.746;9.174;2022-12-07T15:21:49;6.20;99.90
9915;DHT22;4996;48.746;9.174;2022-12-07T15:24:15;6.20;99.90
9915;DHT22;4996;48.746;9.174;2022-12-07T15:26:40;6.20;99.90
9915;DHT22;4996;48.746;9.174;2022-12-07T15:29:07;6.20;99.90
9915;DHT22;4996;48.746;9.174;2022-12-07T15:31:33;6.20;99.90
9915;DHT22;4996;48.746;9.174;2022-12-07T15:33:59;6.20;99.90
9915;DHT22;4996;48.746;9.174;2022-12-07T15:36:27;6.20;99.90
9915;DHT22;4996;48.746;9.174;2022-12-07T15:38:53;6.10;99.90
9915;DHT22;4996;48.746;9.174;2022-12-07T15:41:19;6.20;99.90
9915;DHT22;4996;48.746;9.174;2022-12-07T15:43:45;6.20;99.90
9915;DHT22;4996;48.746;9.174;2022-12-07T15:46:34;6.10;99.90
9915;DHT22;4996;48.746;9.174;2022-12-07T15:49:00;6.00;99.90
9915;DHT22;4996;48.746;9.174;2022-12-07T15:51:26;5.80;99.90
9915;DHT22;4996;48.746;9.174;2022-12-07T15:53:52;5.70;99.90
9915;DHT22;4996;48.746;9.174;2022-12-07T15:56:17;5.60;99.90
9915;DHT22;4996;48.746;9.174;2022-12-07T15:58:43;5.70;99.90
9915;DHT22;4996;48.746;9.174;2022-12-07T16:01:16;5.60;99.90
9915;DHT22;4996;48.746;9.174;2022-12-07T16:03:43;5.60;99.90
9915;DHT22;4996;48.746;9.174;2022-12-07T16:06:09;5.60;99.90
9915;DHT22;4996;48.746;9.174;2022-12-07T16:08:34;5.40;99.90
9915;DHT22;4996;48.746;9.174;2022-12-07T16:11:05;5.50;99.90
9915;DHT22;4996;48.746;9.174;2022-12-07T16:13:31;5.60;99.90
9915;DHT22;4996;48.746;9.174;2022-12-07T16:15:56;5.50;99.90
9915;DHT22;4996;48.746;9.174;2022-12-07T16:18:22;5.50;99.90
9915;DHT22;4996;48.746;9.174;2022-12-07T16:20:48;5.30;99.90
9915;DHT22;4996;48.746;9.174;2022-12-07T16:23:14;5.20;99.90
9915;DHT22;4996;48.746;9.174;2022-12-07T16:25:40;5.30;99.90
9915;DHT22;4996;48.746;9.174;2022-12-07T16:28:06;5.20;99.90
9915;DHT22;4996;48.746;9.174;2022-12-07T16:30:33;5.30;99.90
9915;DHT22;4996;48.746;9.174;2022-12-07T16:32:58;5.30;99.90
9915;DHT22;4996;48.746;9.174;2022-12-07T16:35:24;5.30;99.90
9915;DHT22;4996;48.746;9.174;2022-12-07T16:37:49;5.30;99.90
9915;DHT22;4996;48.746;9.174;2022-12-07T16:40:15;5.00;99.90
9915;DHT22;4996;48.746;9.174;2022-12-07T16:42:40;5.20;99.90
9915;DHT22;4996;48.746;9.174;2022-12-07T16:45:06;5.10;99.90
9915;DHT22;4996;48.746;9.174;2022-12-07T16:47:32;5.10;99.90
9915;DHT22;4996;48.746;9.174;2022-12-07T16:49:57;5.10;99.90
9915;DHT22;4996;48.746;9.174;2022-12-07T16:52:23;5.10;99.90
9915;DHT22;4996;48.746;9.174;2022-12-07T16:54:49;5.00;99.90
9915;DHT22;4996;48.746;9.174;2022-12-07T16:57:15;4.90;99.90
9915;DHT22;4996;48.746;9.174;2022-12-07T16:59:41;5.00;99.90
9915;DHT22;4996;48.746;9.174;2022-12-07T17:02:10;4.80;99.90
9915;DHT22;4996;48.746;9.174;2022-12-07T17:04:36;4.90;99.90
9915;DHT22;4996;48.746;9.174;2022-12-07T17:07:05;4.90;99.90
9915;DHT22;4996;48.746;9.174;2022-12-07T17:09:30;4.90;99.90
9915;DHT22;4996;48.746;9.174;2022-12-07T17:11:56;5.00;99.90
9915;DHT22;4996;48.746;9.174;2022-12-07T17:14:21;4.90;99.90
9915;DHT22;4996;48.746;9.174;2022-12-07T17:17:05;4.80;99.90
9915;DHT22;4996;48.746;9.174;2022-12-07T17:19:31;4.90;99.90
9915;DHT22;4996;48.746;9.174;2022-12-07T17:21:56;4.90;99.90
9915;DHT22;4996;48.746;9.174;2022-12-07T17:24:22;4.80;99.90
9915;DHT22;4996;48.746;9.174;2022-12-07T17:26:47;4.80;99.90
9915;DHT22;4996;48.746;9.174;2022-12-07T17:29:15;4.70;99.90
9915;DHT22;4996;48.746;9.174;2022-12-07T17:31:41;4.70;99.90
9915;DHT22;4996;48.746;9.174;2022-12-07T17:34:13;4.80;99.90
9915;DHT22;4996;48.746;9.174;2022-12-07T17:36:40;4.70;99.90
9915;DHT22;4996;48.746;9.174;2022-12-07T17:39:10;4.80;99.90
9915;DHT22;4996;48.746;9.174;2022-12-07T17:41:37;4.90;99.90
9915;DHT22;4996;48.746;9.174;2022-12-07T17:44:22;5.00;99.90
9915;DHT22;4996;48.746;9.174;2022-12-07T17:46:51;5.00;99.90
9915;DHT22;4996;48.746;9.174;2022-12-07T17:49:22;5.00;99.90
9915;DHT22;4996;48.746;9.174;2022-12-07T17:51:48;5.10;99.90
9915;DHT22;4996;48.746;9.174;2022-12-07T17:54:32;5.10;99.90
9915;DHT22;4996;48.746;9.174;2022-12-07T17:56:57;5.10;99.90
9915;DHT22;4996;48.746;9.174;2022-12-07T17:59:23;5.10;99.90
9915;DHT22;4996;48.746;9.174;2022-12-07T18:01:49;5.20;99.90
9915;DHT22;4996;48.746;9.174;2022-12-07T18:04:14;5.10;99.90
9915;DHT22;4996;48.746;9.174;2022-12-07T18:06:40;5.10;99.90
9915;DHT22;4996;48.746;9.174;2022-12-07T18:09:06;5.10;99.90
9915;DHT22;4996;48.746;9.174;2022-12-07T18:11:32;5.20;99.90